Time;durP1;ratioP1;P1;durP2;ratioP2;P2;SDS_P1;SDS_P2;PMS_P1;PMS_P2;Temp;Humidity;BMP_temperature;BMP_pressure;BME280_temperature;BME280_humidity;BME280_pressure;Samples;Min_cycle;Max_cycle;Signal;HPM_P1;HPM_P2
2021/12/22 00:01:58;;;;;;;4.70;2.63;;;;;;;-5.32;84.34;98571.50;6098968;29;20240;-87
2021/12/22 00:05:00;;;;;;;5.47;2.60;;;;;;;-5.35;84.82;98563.78;6102595;29;20692;-87
2021/12/22 00:08:02;;;;;;;3.43;2.60;;;;;;;-5.39;84.68;98572.41;6109997;28;20842;-87
2021/12/22 00:11:04;;;;;;;2.83;2.03;;;;;;;-5.44;84.34;98574.09;6103176;28;20230;-87
2021/12/22 00:14:06;;;;;;;5.17;2.27;;;;;;;-5.49;84.68;98573.28;6107546;28;20223;-89
2021/12/22 00:17:09;;;;;;;3.43;2.47;;;;;;;-5.55;84.90;98571.56;6108824;28;20758;-88
2021/12/22 00:20:12;;;;;;;3.90;2.60;;;;;;;-5.61;85.29;98569.00;6107780;28;20242;-87
2021/12/22 00:23:14;;;;;;;6.73;3.17;;;;;;;-5.67;84.88;98574.16;6108285;28;20719;-87
2021/12/22 00:26:16;;;;;;;4.73;3.20;;;;;;;-5.73;85.31;98576.75;6108679;28;20231;-87
2021/12/22 00:29:19;;;;;;;3.10;2.17;;;;;;;-5.78;84.91;98575.88;6107637;28;20231;-87
2021/12/22 00:32:22;;;;;;;4.10;2.83;;;;;;;-5.84;85.80;98581.03;6108304;28;20229;-88
2021/12/22 00:35:29;;;;;;;6.70;2.73;;;;;;;-5.90;84.75;98581.09;6100707;28;20615;-86
2021/12/22 00:38:31;;;;;;;3.77;2.80;;;;;;;-5.98;84.92;98597.34;6108049;28;20708;-88
2021/12/22 00:41:33;;;;;;;3.83;2.57;;;;;;;-6.04;85.34;98597.34;6123463;28;20250;-87
2021/12/22 00:44:35;;;;;;;4.00;3.07;;;;;;;-6.09;85.11;98600.78;6124408;28;20233;-87
2021/12/22 00:47:38;;;;;;;4.87;2.60;;;;;;;-6.14;85.55;98599.91;6110691;28;20310;-88
2021/12/22 00:50:41;;;;;;;3.83;2.70;;;;;;;-6.22;85.54;98599.91;6128067;28;20239;-86
2021/12/22 00:53:43;;;;;;;3.20;2.43;;;;;;;-6.30;85.97;98606.78;6112936;28;20729;-87
2021/12/22 00:56:45;;;;;;;3.27;2.47;;;;;;;-6.36;85.50;98609.31;6112723;28;20241;-87
2021/12/22 00:59:48;;;;;;;4.33;3.27;;;;;;;-6.43;85.32;98611.03;6127764;28;20249;-88
2021/12/22 01:02:50;;;;;;;3.67;2.60;;;;;;;-6.50;85.85;98608.44;6112770;28;20610;-87
2021/12/22 01:05:52;;;;;;;3.23;2.37;;;;;;;-6.56;85.24;98611.84;6126849;28;20735;-87
2021/12/22 01:08:55;;;;;;;3.63;2.40;;;;;;;-6.60;85.78;98616.97;6128241;28;20710;-88
2021/12/22 01:11:57;;;;;;;3.80;2.63;;;;;;;-6.65;85.50;98616.09;6093182;29;20236;-87
2021/12/22 01:14:59;;;;;;;3.33;2.50;;;;;;;-6.69;85.82;98622.94;6125367;28;20239;-87
2021/12/22 01:18:09;;;;;;;4.23;2.83;;;;;;;-6.77;85.49;98617.78;6093122;29;20382;-87
2021/12/22 01:24:21;;;;;;;4.77;3.53;;;;;;;-6.87;85.26;98628.00;6128255;28;20226;-88
2021/12/22 01:27:26;;;;;;;6.93;3.07;;;;;;;-6.93;84.73;98618.59;6110934;28;20228;-87
2021/12/22 01:30:30;;;;;;;7.90;3.27;;;;;;;-6.95;85.63;98624.53;6112499;28;20245;-88
2021/12/22 01:33:32;;;;;;;3.90;2.87;;;;;;;-6.99;85.13;98625.41;6111454;28;20238;-86
2021/12/22 01:36:34;;;;;;;5.33;3.23;;;;;;;-7.02;84.86;98628.81;6105353;28;20238;-86
2021/12/22 01:39:36;;;;;;;4.50;2.80;;;;;;;-7.05;84.81;98630.50;6112454;28;20729;-87
2021/12/22 01:42:40;;;;;;;3.83;2.90;;;;;;;-7.10;84.94;98630.47;6088333;29;20750;-86
2021/12/22 01:46:20;;;;;;;6.10;3.40;;;;;;;-7.14;85.46;98633.88;6122387;28;20245;-87
2021/12/22 01:49:44;;;;;;;4.33;3.00;;;;;;;-7.15;85.71;98632.16;6111006;28;20227;-87
2021/12/22 01:52:46;;;;;;;4.47;2.60;;;;;;;-7.17;85.61;98628.72;6108632;29;20339;-90
2021/12/22 01:59:16;;;;;;;5.13;3.63;;;;;;;-7.23;84.78;98628.69;6120795;28;20235;-87
2021/12/22 02:02:19;;;;;;;7.97;3.23;;;;;;;-7.25;85.44;98635.53;6111213;28;20732;-86
2021/12/22 02:05:21;;;;;;;4.27;2.80;;;;;;;-7.28;85.42;98628.66;6107196;28;20702;-87
2021/12/22 02:08:23;;;;;;;4.20;3.13;;;;;;;-7.29;85.75;98624.41;6111650;28;20731;-87
2021/12/22 02:11:25;;;;;;;5.63;2.97;;;;;;;-7.30;85.18;98625.25;6093371;29;20229;-88
2021/12/22 02:14:28;;;;;;;5.03;2.90;;;;;;;-7.31;85.73;98627.81;6111213;28;20250;-87
2021/12/22 02:17:30;;;;;;;5.63;2.97;;;;;;;-7.33;85.12;98630.34;6111434;28;20293;-87
2021/12/22 02:20:32;;;;;;;6.93;2.93;;;;;;;-7.35;85.54;98634.63;6109772;28;20334;-87
2021/12/22 02:23:35;;;;;;;6.33;3.00;;;;;;;-7.37;85.21;98632.88;6110552;28;20227;-86
2021/12/22 02:26:43;;;;;;;5.63;2.77;;;;;;;-7.38;85.53;98639.72;6095360;29;20708;-86
2021/12/22 02:29:47;;;;;;;3.63;2.70;;;;;;;-7.40;85.13;98640.56;6101878;29;20728;-86
2021/12/22 02:39:08;;;;;;;4.07;2.63;;;;;;;-7.52;85.07;98638.78;6133346;28;21126;-88
2021/12/22 02:42:12;;;;;;;4.53;2.67;;;;;;;-7.57;85.40;98638.75;6133550;28;20203;-87
2021/12/22 02:45:17;;;;;;;3.97;2.87;;;;;;;-7.60;85.59;98637.88;6132612;28;20702;-87
2021/12/22 02:48:19;;;;;;;5.30;2.60;;;;;;;-7.63;84.77;98637.84;6129274;28;20225;-86
2021/12/22 02:51:21;;;;;;;3.90;2.10;;;;;;;-7.66;85.53;98648.94;6110015;28;20257;-87
2021/12/22 02:54:27;;;;;;;4.30;2.37;;;;;;;-7.67;85.09;98646.34;6094477;28;20644;-88
2021/12/22 02:57:47;;;;;;;4.27;2.67;;;;;;;-7.68;85.60;98652.31;6110628;28;20640;-87
2021/12/22 03:01:53;;;;;;;3.83;2.37;;;;;;;-7.70;84.82;98646.34;6094414;28;20282;-87
2021/12/22 03:04:21;;;;;;;3.60;2.37;;;;;;;-7.72;85.25;98645.47;6103329;28;20729;-87
2021/12/22 03:07:27;;;;;;;3.30;2.30;;;;;;;-7.73;85.05;98651.44;6096139;28;20730;-87
2021/12/22 03:10:31;;;;;;;6.13;2.60;;;;;;;-7.74;84.79;98647.16;6093766;28;20596;-87
2021/12/22 03:13:33;;;;;;;4.57;2.50;;;;;;;-7.74;85.42;98642.03;6110239;28;20802;-87
2021/12/22 03:16:35;;;;;;;3.97;2.60;;;;;;;-7.75;84.89;98641.19;6105884;28;20721;-87
2021/12/22 03:19:37;;;;;;;2.57;1.90;;;;;;;-7.76;85.23;98642.03;6108822;28;20242;-87
2021/12/22 03:22:42;;;;;;;3.70;2.63;;;;;;;-7.77;85.26;98642.88;6131501;28;20638;-86
2021/12/22 03:25:44;;;;;;;3.37;2.30;;;;;;;-7.76;85.72;98643.72;6132751;28;20308;-87
2021/12/22 03:28:46;;;;;;;2.97;2.27;;;;;;;-7.78;85.70;98653.13;6132905;28;20240;-87
2021/12/22 03:31:48;;;;;;;3.40;2.43;;;;;;;-7.80;84.64;98648.00;6133163;28;20237;-87
2021/12/22 03:34:50;;;;;;;3.90;2.27;;;;;;;-7.82;85.47;98652.25;6110073;28;20679;-87
2021/12/22 03:37:58;;;;;;;3.43;2.40;;;;;;;-7.85;85.69;98650.50;6093516;28;20299;-87
2021/12/22 03:41:01;;;;;;;2.43;2.10;;;;;;;-7.86;85.86;98653.06;6088444;29;20238;-86
2021/12/22 03:44:04;;;;;;;4.17;2.40;;;;;;;-7.88;85.74;98655.59;6101729;29;20234;-87
2021/12/22 03:47:07;;;;;;;6.23;2.47;;;;;;;-7.86;85.07;98660.72;6092869;28;20684;-90
2021/12/22 03:50:11;;;;;;;5.63;2.90;;;;;;;-7.88;85.91;98663.28;6124553;28;20235;-87
2021/12/22 03:53:13;;;;;;;5.40;3.10;;;;;;;-7.86;85.21;98663.28;6093440;28;20721;-86
2021/12/22 03:56:14;;;;;;;4.57;3.03;;;;;;;-7.86;85.27;98663.28;6125693;28;20368;-87
2021/12/22 03:59:17;;;;;;;3.30;2.33;;;;;;;-7.86;85.79;98673.53;6132709;28;20752;-87
2021/12/22 04:02:21;;;;;;;5.20;3.10;;;;;;;-7.86;85.17;98673.53;6129736;28;20354;-87
2021/12/22 04:05:23;;;;;;;3.97;2.80;;;;;;;-7.87;85.27;98666.69;6083162;28;20711;-86
2021/12/22 04:08:25;;;;;;;4.57;2.70;;;;;;;-7.86;85.70;98668.41;6092872;28;20261;-87
2021/12/22 04:11:27;;;;;;;5.17;3.30;;;;;;;-7.87;85.28;98676.94;6123513;28;20250;-88
2021/12/22 04:14:29;;;;;;;5.57;3.93;;;;;;;-7.90;85.00;98671.81;6124148;28;20235;-86
2021/12/22 04:17:31;;;;;;;6.10;3.53;;;;;;;-7.90;85.15;98679.50;6107704;28;20730;-87
2021/12/22 04:20:34;;;;;;;11.10;4.37;;;;;;;-7.91;86.02;98670.09;6108355;28;20246;-87
2021/12/22 04:23:36;;;;;;;6.40;4.33;;;;;;;-7.92;85.25;98666.69;6106924;28;20231;-87
2021/12/22 04:26:39;;;;;;;7.20;4.00;;;;;;;-7.93;85.16;98674.34;6098912;29;20337;-87
2021/12/22 04:29:41;;;;;;;6.60;4.40;;;;;;;-7.95;85.62;98673.47;6106642;28;20241;-87
2021/12/22 04:32:43;;;;;;;7.30;4.10;;;;;;;-7.95;84.72;98676.03;6106638;28;20226;-87
2021/12/22 04:35:50;;;;;;;7.93;4.60;;;;;;;-7.98;85.82;98674.28;6106881;28;20241;-88
2021/12/22 04:38:54;;;;;;;9.37;4.53;;;;;;;-7.97;85.17;98672.59;6084714;29;20235;-87
2021/12/22 04:41:55;;;;;;;9.20;4.87;;;;;;;-7.98;86.32;98660.63;6142922;28;20281;-87
2021/12/22 04:44:59;;;;;;;6.10;4.00;;;;;;;-8.00;85.06;98662.34;6114287;28;20731;-87
2021/12/22 04:48:01;;;;;;;7.93;4.60;;;;;;;-8.00;86.04;98663.19;6123249;28;20226;-88
2021/12/22 04:51:14;;;;;;;7.30;4.50;;;;;;;-7.99;85.86;98672.59;6123147;28;20259;-86
2021/12/22 04:57:18;;;;;;;7.47;4.87;;;;;;;-7.96;85.94;98685.41;6106477;28;20229;-86
2021/12/22 05:00:21;;;;;;;12.00;5.37;;;;;;;-7.96;85.21;98679.44;6107630;28;20211;-86
2021/12/22 05:03:23;;;;;;;8.10;4.97;;;;;;;-7.97;85.44;98686.25;6106807;28;20257;-86
2021/12/22 05:06:25;;;;;;;9.67;4.80;;;;;;;-7.94;86.29;98678.59;6069270;29;20282;-86
2021/12/22 05:09:27;;;;;;;6.87;4.23;;;;;;;-7.93;86.14;98677.75;6105754;28;20237;-88
2021/12/22 05:12:29;;;;;;;8.77;5.43;;;;;;;-7.91;86.57;98681.19;6107037;28;20678;-87
2021/12/22 05:15:38;;;;;;;7.13;4.83;;;;;;;-7.90;85.90;98676.94;6107245;28;20231;-87
2021/12/22 05:18:58;;;;;;;8.37;5.03;;;;;;;-7.88;85.75;98682.91;6094223;29;20371;-87
2021/12/22 05:22:00;;;;;;;9.23;5.27;;;;;;;-7.87;85.91;98684.63;6096470;28;20711;-86
2021/12/22 05:25:05;;;;;;;8.67;5.20;;;;;;;-7.89;85.87;98678.66;6106299;28;20595;-87
2021/12/22 05:28:06;;;;;;;8.47;5.27;;;;;;;-7.91;85.76;98681.19;6091748;28;20256;-87
2021/12/22 05:31:09;;;;;;;6.97;3.97;;;;;;;-7.90;85.79;98679.50;6100607;28;20706;-87
2021/12/22 05:34:11;;;;;;;10.00;5.07;;;;;;;-7.90;85.81;98682.94;6111009;28;20258;-87
2021/12/22 05:37:13;;;;;;;7.03;4.03;;;;;;;-7.92;86.07;98682.03;6110880;28;20248;-86
2021/12/22 05:40:15;;;;;;;7.17;5.00;;;;;;;-7.96;85.64;98685.41;6110635;28;20237;-87
2021/12/22 05:43:17;;;;;;;8.90;5.53;;;;;;;-8.02;86.56;98698.19;6111329;28;20238;-86
2021/12/22 05:46:19;;;;;;;10.67;5.20;;;;;;;-8.07;86.86;98702.38;6128053;28;20262;-87
2021/12/22 05:49:21;;;;;;;9.60;5.03;;;;;;;-8.11;86.49;98700.66;6112113;28;20246;-87
2021/12/22 05:52:23;;;;;;;7.67;5.37;;;;;;;-8.17;85.67;98705.69;6111105;28;20244;-87
2021/12/22 05:55:25;;;;;;;9.37;5.57;;;;;;;-8.18;86.23;98704.84;6111114;28;20223;-86
2021/12/22 05:58:27;;;;;;;7.97;4.83;;;;;;;-8.21;86.05;98704.81;6111280;28;20619;-87
2021/12/22 06:01:30;;;;;;;8.43;5.37;;;;;;;-8.23;nan;98708.19;6110523;28;20246;-87
2021/12/22 06:04:33;;;;;;;10.97;5.57;;;;;;;-8.24;86.09;98716.72;6112533;28;20235;-87
2021/12/22 06:07:35;;;;;;;9.67;5.40;;;;;;;-8.25;85.42;98713.31;6110706;28;20234;-88
2021/12/22 06:10:37;;;;;;;8.80;4.90;;;;;;;-8.25;85.75;98725.25;6101377;28;20235;-86
2021/12/22 06:13:39;;;;;;;11.87;5.23;;;;;;;-8.25;85.04;98728.66;6123651;28;20332;-86
2021/12/22 06:16:41;;;;;;;9.17;5.93;;;;;;;-8.26;85.99;98726.94;6133798;28;20237;-87
2021/12/22 06:19:43;;;;;;;9.47;5.00;;;;;;;-8.25;86.01;98732.91;6118842;28;20245;-86
2021/12/22 06:22:45;;;;;;;9.33;4.83;;;;;;;-8.23;86.52;98733.81;6134090;28;20242;-86
2021/12/22 06:25:47;;;;;;;8.77;5.67;;;;;;;-8.22;86.10;98738.09;6134173;28;20228;-86
2021/12/22 06:28:50;;;;;;;9.27;5.77;;;;;;;-8.25;85.87;98741.47;6134611;28;20272;-87
2021/12/22 06:31:53;;;;;;;10.07;5.80;;;;;;;-8.24;86.14;98740.63;6118443;28;20787;-87
2021/12/22 06:34:55;;;;;;;8.57;5.10;;;;;;;-8.24;85.17;98745.75;6123131;28;20367;-87
2021/12/22 06:37:57;;;;;;;11.60;5.90;;;;;;;-8.23;85.74;98750.03;6123240;28;20373;-87
2021/12/22 06:40:59;;;;;;;8.80;4.83;;;;;;;-8.21;86.11;98753.47;6117234;28;20765;-87
2021/12/22 06:44:02;;;;;;;9.90;5.27;;;;;;;-8.20;86.32;98752.63;6133450;28;20226;-87
2021/12/22 06:47:06;;;;;;;9.23;5.03;;;;;;;-8.16;86.19;98760.31;6132378;28;20711;-86
2021/12/22 06:50:09;;;;;;;11.10;6.03;;;;;;;-8.18;85.48;98766.28;6133815;28;20305;-87
2021/12/22 06:53:11;;;;;;;10.77;6.13;;;;;;;-8.18;86.40;98762.84;6132870;28;20278;-86
2021/12/22 06:56:13;;;;;;;8.13;5.20;;;;;;;-8.21;85.90;98773.94;6095752;28;20231;-87
2021/12/22 06:59:15;;;;;;;9.10;4.87;;;;;;;-8.21;86.24;98771.38;6071568;29;20239;-85
2021/12/22 07:02:17;;;;;;;10.07;5.23;;;;;;;-8.18;86.03;98775.66;6118611;28;20233;-86
2021/12/22 07:05:21;;;;;;;8.60;4.90;;;;;;;-8.18;85.44;98785.06;6130630;28;20717;-87
2021/12/22 07:08:23;;;;;;;7.50;5.37;;;;;;;-8.20;85.82;98785.91;6133196;28;20234;-86
2021/12/22 07:11:26;;;;;;;8.37;5.80;;;;;;;-8.18;85.38;98790.19;6116679;28;20559;-86
2021/12/22 07:14:28;;;;;;;8.00;5.40;;;;;;;-8.18;85.71;98787.63;6133145;28;20313;-90
2021/12/22 07:17:30;;;;;;;9.20;4.87;;;;;;;-8.17;85.42;98795.31;6132691;28;20234;-87
2021/12/22 07:20:32;;;;;;;9.43;5.53;;;;;;;-8.16;84.75;98791.91;6131876;28;20235;-87
2021/12/22 07:23:34;;;;;;;10.60;5.23;;;;;;;-8.13;85.91;98797.06;6112028;28;20318;-87
2021/12/22 07:26:38;;;;;;;8.73;5.50;;;;;;;-8.07;85.74;98798.81;6125236;28;20310;-87
2021/12/22 07:29:41;;;;;;;8.03;5.00;;;;;;;-8.01;86.18;98807.44;6132015;28;20630;-87
2021/12/22 07:32:44;;;;;;;9.37;5.57;;;;;;;-7.97;85.61;98800.66;6134347;28;20238;-86
2021/12/22 07:35:57;;;;;;;10.73;5.57;;;;;;;-7.93;85.43;98802.41;6122109;29;20755;-87
2021/12/22 07:39:04;;;;;;;12.63;5.77;;;;;;;-7.93;85.68;98800.72;6132194;28;20233;-86
2021/12/22 07:42:06;;;;;;;10.07;5.43;;;;;;;-7.87;85.08;98805.03;6132695;28;20215;-87
2021/12/22 07:45:11;;;;;;;8.53;5.77;;;;;;;-7.83;85.95;98811.91;6132859;28;20218;-88
2021/12/22 07:48:13;;;;;;;9.23;5.63;;;;;;;-7.80;84.68;98803.41;6131854;28;20209;-87
2021/12/22 07:51:15;;;;;;;10.90;5.77;;;;;;;-7.75;85.35;98809.41;6131755;28;20667;-86
2021/12/22 07:54:17;;;;;;;9.90;5.77;;;;;;;-7.71;84.69;98813.75;6114710;28;20255;-88
2021/12/22 07:57:19;;;;;;;14.77;6.53;;;;;;;-7.68;85.45;98811.19;6106938;28;20679;-86
2021/12/22 08:00:21;;;;;;;9.30;5.90;;;;;;;-7.66;85.23;98812.06;6092022;28;20257;-86
2021/12/22 08:03:25;;;;;;;12.83;6.33;;;;;;;-7.59;84.75;98811.31;6106584;28;20686;-86
2021/12/22 08:06:45;;;;;;;12.17;6.47;;;;;;;-7.50;85.15;98814.81;6077262;28;20273;-86
2021/12/22 08:09:47;;;;;;;9.70;6.30;;;;;;;-7.42;85.57;98809.75;6109211;28;20310;-87
2021/12/22 08:12:49;;;;;;;14.23;6.10;;;;;;;-7.31;85.21;98810.69;6123092;28;20770;-87
2021/12/22 08:15:51;;;;;;;11.47;5.87;;;;;;;-7.24;85.26;98811.59;6084985;29;20250;-86
2021/12/22 08:18:53;;;;;;;11.13;6.00;;;;;;;-7.16;85.75;98808.25;6119819;28;20326;-87
2021/12/22 08:21:55;;;;;;;14.10;7.33;;;;;;;-6.99;84.72;98813.53;6123006;28;20703;-87
2021/12/22 08:24:57;;;;;;;10.50;6.10;;;;;;;-6.88;85.50;98814.44;6107708;28;20230;-87
2021/12/22 08:28:00;;;;;;;16.47;7.27;;;;;;;-6.80;85.28;98815.38;6108945;28;20817;-87
2021/12/22 08:31:02;;;;;;;12.97;7.07;;;;;;;-6.69;84.84;98824.84;6107793;28;20227;-87
2021/12/22 08:34:06;;;;;;;13.30;7.63;;;;;;;-6.57;85.57;98817.19;6106681;28;20234;-88
2021/12/22 08:40:31;;;;;;;14.73;7.40;;;;;;;-6.38;85.10;98822.44;6123611;28;20238;-87
2021/12/22 08:43:33;;;;;;;12.63;7.93;;;;;;;-6.26;85.00;98824.19;6123468;28;20238;-87
2021/12/22 08:46:38;;;;;;;14.00;8.10;;;;;;;-6.14;85.13;98831.09;6107258;28;20611;-86
2021/12/22 08:49:40;;;;;;;14.47;8.90;;;;;;;-5.95;84.95;98835.47;6123070;28;20246;-87
2021/12/22 08:52:42;;;;;;;17.53;9.63;;;;;;;-5.74;85.99;98839.78;6106694;28;20628;-86
2021/12/22 08:55:44;;;;;;;15.40;8.80;;;;;;;-5.56;85.30;98829.53;6107393;28;20239;-87
2021/12/22 08:58:47;;;;;;;15.40;10.30;;;;;;;-5.25;85.79;98835.59;6107516;28;20523;-87
2021/12/22 09:01:50;;;;;;;16.77;9.83;;;;;;;-4.94;85.78;98831.31;6122683;28;20449;-90
2021/12/22 09:04:52;;;;;;;15.37;8.93;;;;;;;-4.68;85.82;98833.84;6123127;28;20257;-87
2021/12/22 09:07:54;;;;;;;18.97;10.43;;;;;;;-4.47;85.44;98844.97;6108449;28;20277;-86
2021/12/22 09:10:57;;;;;;;15.23;9.33;;;;;;;-4.23;85.41;98853.53;6111264;28;20242;-87
2021/12/22 09:13:59;;;;;;;15.90;9.77;;;;;;;-4.01;85.28;98851.75;6111315;28;20242;-87
2021/12/22 09:17:02;;;;;;;23.37;11.90;;;;;;;-3.80;84.59;98851.66;6126947;28;20628;-87
2021/12/22 09:20:06;;;;;;;17.77;10.47;;;;;;;-3.51;83.51;98848.94;6112003;28;20241;-87
2021/12/22 09:23:08;;;;;;;19.07;11.10;;;;;;;-3.16;83.50;98838.38;6111614;28;20231;-87
2021/12/22 09:26:10;;;;;;;18.87;11.10;;;;;;;-2.88;81.63;98836.41;6127556;28;20258;-87
2021/12/22 09:29:13;;;;;;;18.10;10.77;;;;;;;-2.61;80.67;98843.94;6110057;28;20235;-88
2021/12/22 09:32:17;;;;;;;16.60;10.30;;;;;;;-2.24;80.24;98834.94;6111707;28;20617;-88
2021/12/22 09:35:19;;;;;;;15.83;9.60;;;;;;;-1.98;77.97;98831.19;6089612;29;20235;-88
2021/12/22 09:38:21;;;;;;;13.77;9.30;;;;;;;-1.77;77.01;98841.28;6124768;28;20600;-88
2021/12/22 09:41:23;;;;;;;13.77;9.63;;;;;;;-1.54;76.15;98834.09;6111174;28;20699;-88
2021/12/22 09:44:31;;;;;;;13.63;8.80;;;;;;;-1.40;75.76;98828.72;6110793;28;20266;-87
2021/12/22 09:47:48;;;;;;;13.47;8.83;;;;;;;-1.18;75.65;98826.66;6111294;28;20723;-88
2021/12/22 09:54:04;;;;;;;12.33;8.87;;;;;;;-0.87;73.02;98827.88;6134035;28;20254;-88
2021/12/22 09:57:07;;;;;;;13.27;8.57;;;;;;;-0.85;71.86;98822.69;6096784;28;20672;-89
2021/12/22 10:00:09;;;;;;;18.53;8.93;;;;;;;-0.73;71.06;98822.50;6094536;28;20214;-88
2021/12/22 10:03:18;;;;;;;15.80;9.53;;;;;;;-0.72;69.76;98815.56;6095334;28;20322;-88
2021/12/22 10:06:20;;;;;;;11.47;8.27;;;;;;;-0.62;70.78;98801.56;6088293;29;20222;-89
2021/12/22 10:09:24;;;;;;;11.07;7.90;;;;;;;-0.66;68.92;98811.13;6123565;28;20586;-87
2021/12/22 10:12:26;;;;;;;11.23;7.50;;;;;;;-0.51;68.75;98810.88;6110173;28;20229;-88
2021/12/22 10:15:33;;;;;;;17.10;8.10;;;;;;;-0.26;68.25;98805.22;6097028;29;20317;-88
2021/12/22 10:18:35;;;;;;;10.83;7.97;;;;;;;-0.08;68.77;98797.94;6098292;28;20239;-88
2021/12/22 10:22:01;;;;;;;12.63;7.20;;;;;;;0.08;67.00;98787.25;6109411;28;20239;-88
2021/12/22 10:25:10;;;;;;;9.60;7.13;;;;;;;0.20;67.21;98777.44;6111352;28;20244;-89
2021/12/22 10:28:18;;;;;;;10.90;6.50;;;;;;;0.38;66.22;98775.38;6110267;28;20264;-89
2021/12/22 10:31:27;;;;;;;9.03;6.67;;;;;;;0.53;66.44;98768.06;6112600;29;20226;-88
2021/12/22 10:34:29;;;;;;;8.90;6.40;;;;;;;0.61;66.19;98771.34;6095502;28;20579;-89
2021/12/22 10:37:40;;;;;;;8.67;6.37;;;;;;;0.76;65.87;98775.34;6110512;28;20326;-89
2021/12/22 10:40:45;;;;;;;9.07;5.53;;;;;;;0.63;64.29;98769.56;6109386;28;20246;-88
2021/12/22 10:43:50;;;;;;;8.90;5.57;;;;;;;0.53;62.68;98768.06;6090447;29;20238;-89
2021/12/22 10:46:55;;;;;;;6.93;4.73;;;;;;;0.47;62.65;98757.84;6119807;28;20227;-88
2021/12/22 10:50:07;;;;;;;6.40;4.40;;;;;;;0.61;63.58;98760.94;6125776;28;20726;-88
2021/12/22 10:53:14;;;;;;;6.27;4.53;;;;;;;0.63;62.89;98753.97;6110625;28;20545;-89
2021/12/22 10:56:31;;;;;;;6.93;4.77;;;;;;;0.48;62.41;98743.97;6111419;28;20255;-88
2021/12/22 10:59:43;;;;;;;9.97;6.17;;;;;;;0.34;62.82;98749.47;6128446;28;20400;-89
2021/12/22 11:03:05;;;;;;;9.87;6.67;;;;;;;0.55;62.64;98747.25;6109746;28;20239;-88
2021/12/22 11:06:29;;;;;;;8.50;6.20;;;;;;;0.76;62.24;98738.97;6125130;28;20320;-88
2021/12/22 11:09:36;;;;;;;8.83;5.90;;;;;;;0.78;61.56;98739.78;6129625;28;20229;-88
2021/12/22 11:12:39;;;;;;;9.47;5.73;;;;;;;0.83;62.39;98731.88;6133772;28;20230;-88
2021/12/22 11:15:43;;;;;;;11.53;6.87;;;;;;;0.85;62.63;98727.50;6122033;28;20602;-89
2021/12/22 11:18:46;;;;;;;9.13;5.63;;;;;;;0.88;61.82;98737.81;6131660;28;20613;-88
2021/12/22 11:22:03;;;;;;;11.07;6.13;;;;;;;0.97;61.69;98735.00;6132354;28;20314;-88
2021/12/22 11:25:07;;;;;;;9.20;6.20;;;;;;;0.82;61.89;98743.16;6113418;28;20227;-88
2021/12/22 11:28:16;;;;;;;11.57;7.03;;;;;;;0.75;63.18;98742.47;6126748;28;20234;-88
2021/12/22 11:31:18;;;;;;;11.43;7.20;;;;;;;0.69;62.74;98748.66;6132483;28;20710;-88
2021/12/22 11:34:22;;;;;;;10.23;6.97;;;;;;;0.64;61.86;98753.09;6121841;28;20231;-88
2021/12/22 11:37:25;;;;;;;10.10;6.60;;;;;;;0.59;62.59;98736.78;6116053;28;20241;-88
2021/12/22 11:40:28;;;;;;;10.33;7.30;;;;;;;0.48;62.76;98728.38;6132429;28;20289;-89
2021/12/22 11:43:30;;;;;;;9.17;7.10;;;;;;;0.43;63.03;98730.22;6132041;28;20241;-88
2021/12/22 11:46:32;;;;;;;13.27;7.60;;;;;;;0.30;63.17;98729.63;6115843;28;20238;-88
2021/12/22 11:49:37;;;;;;;12.83;7.90;;;;;;;0.22;64.35;98725.50;6132826;28;20292;-88
2021/12/22 11:52:43;;;;;;;13.07;8.23;;;;;;;0.03;64.41;98722.47;6132247;28;20241;-88
2021/12/22 11:55:51;;;;;;;13.40;7.93;;;;;;;0.05;64.21;98717.25;6118960;28;20243;-87
2021/12/22 11:58:53;;;;;;;11.23;8.03;;;;;;;0.21;64.00;98722.06;6123496;28;20231;-88
2021/12/22 12:02:33;;;;;;;12.87;8.27;;;;;;;0.72;63.33;98698.34;6108056;28;20234;-88
2021/12/22 12:05:35;;;;;;;12.00;8.30;;;;;;;0.80;63.15;98705.97;6104457;28;20374;-89
2021/12/22 12:08:52;;;;;;;11.70;7.73;;;;;;;0.79;62.26;98712.94;6107837;28;20241;-88
2021/12/22 12:11:56;;;;;;;14.47;8.30;;;;;;;0.96;61.45;98707.28;6107747;28;20730;-88
2021/12/22 12:15:11;;;;;;;11.53;7.70;;;;;;;0.98;61.58;98702.91;6103479;28;20607;-88
2021/12/22 12:21:56;;;;;;;12.10;9.07;;;;;;;1.17;60.85;98698.94;6097763;28;20238;-88
2021/12/22 12:25:04;;;;;;;13.00;8.60;;;;;;;1.23;60.04;98703.13;6107506;28;20231;-88
2021/12/22 12:28:17;;;;;;;14.90;8.90;;;;;;;1.15;60.64;98705.06;6109299;28;20778;-88
2021/12/22 12:31:39;;;;;;;13.47;9.10;;;;;;;1.12;59.85;98703.41;6109178;28;20239;-88
2021/12/22 12:34:43;;;;;;;13.57;8.73;;;;;;;1.19;60.10;98706.72;6106437;28;20243;-88
2021/12/22 12:38:07;;;;;;;11.73;8.53;;;;;;;1.29;60.01;98702.97;6105732;28;20231;-88
2021/12/22 12:41:19;;;;;;;17.20;10.97;;;;;;;1.14;60.64;98696.41;6124074;28;20265;-89
2021/12/22 12:44:28;;;;;;;17.70;11.43;;;;;;;1.07;62.20;98695.75;6114182;28;20223;-88
2021/12/22 12:47:30;;;;;;;17.40;12.03;;;;;;;1.38;61.28;98692.31;6115476;28;20362;-89
2021/12/22 12:50:32;;;;;;;18.20;11.20;;;;;;;1.83;60.75;98687.56;6131656;28;20386;-88
2021/12/22 12:53:44;;;;;;;19.77;12.63;;;;;;;2.09;59.50;98679.84;6114534;28;20226;-88
2021/12/22 12:56:48;;;;;;;17.93;12.50;;;;;;;1.57;60.65;98674.44;6107068;29;20224;-88
2021/12/22 12:59:54;;;;;;;21.93;14.10;;;;;;;0.77;62.85;98677.47;6096751;28;20250;-88
2021/12/22 13:03:01;;;;;;;20.37;13.73;;;;;;;0.39;64.37;98673.22;6114601;28;20242;-89
2021/12/22 13:06:09;;;;;;;22.67;14.43;;;;;;;-0.01;65.89;98680.19;6111465;29;20703;-88
2021/12/22 13:09:25;;;;;;;18.40;12.97;;;;;;;-0.29;67.11;98675.59;6076288;29;20294;-88
2021/12/22 13:15:46;;;;;;;23.73;14.17;;;;;;;-0.47;68.12;98680.28;6139012;28;20227;-88
2021/12/22 13:18:49;;;;;;;22.10;13.93;;;;;;;-0.48;68.42;98675.13;6125646;28;20246;-90
2021/12/22 13:21:51;;;;;;;22.50;14.83;;;;;;;-0.47;68.94;98669.06;6140515;28;20257;-88
2021/12/22 13:25:11;;;;;;;21.67;14.13;;;;;;;-0.52;68.83;98666.56;6129196;28;20219;-88
2021/12/22 13:28:22;;;;;;;22.97;13.90;;;;;;;-0.60;68.92;98677.97;6099347;28;20227;-88
2021/12/22 13:31:24;;;;;;;21.70;13.73;;;;;;;-0.69;69.38;98680.72;6138737;28;20711;-87
2021/12/22 13:34:26;;;;;;;19.90;13.13;;;;;;;-0.78;69.47;98674.00;6103889;28;20258;-88
2021/12/22 13:37:30;;;;;;;22.17;15.67;;;;;;;-0.78;69.93;98674.84;6114172;28;20234;-87
2021/12/22 13:40:46;;;;;;;23.17;14.97;;;;;;;-0.83;70.23;98666.31;6091702;29;20843;-89
2021/12/22 13:43:51;;;;;;;22.43;13.93;;;;;;;-0.90;70.68;98669.06;6090987;29;20286;-87
2021/12/22 13:46:53;;;;;;;23.43;14.90;;;;;;;-0.93;70.84;98666.53;6112774;28;20618;-88
2021/12/22 13:49:55;;;;;;;20.00;13.87;;;;;;;-1.02;71.17;98666.69;6115389;28;20226;-87
2021/12/22 13:52:57;;;;;;;21.40;14.80;;;;;;;-1.05;71.40;98671.91;6114282;28;20695;-88
2021/12/22 13:56:01;;;;;;;21.40;14.07;;;;;;;-1.07;71.17;98673.66;6114864;28;20231;-88
2021/12/22 13:59:06;;;;;;;24.60;14.50;;;;;;;-1.12;71.28;98666.84;6111818;28;20609;-88
2021/12/22 14:02:09;;;;;;;20.87;13.23;;;;;;;-1.17;71.89;98668.66;6126429;28;20901;-89
2021/12/22 14:05:20;;;;;;;19.77;12.97;;;;;;;-1.19;72.02;98673.00;6092882;29;20323;-87
2021/12/22 14:08:24;;;;;;;22.07;14.57;;;;;;;-1.21;72.23;98671.34;6112022;28;20778;-87
2021/12/22 14:11:29;;;;;;;22.80;14.63;;;;;;;-1.33;72.98;98663.78;6126450;28;20821;-87
2021/12/22 14:14:37;;;;;;;24.23;15.67;;;;;;;-1.50;73.26;98670.06;6111038;28;20239;-88
2021/12/22 14:17:47;;;;;;;24.70;14.97;;;;;;;-1.52;73.35;98668.41;6112327;28;20314;-87
2021/12/22 14:20:49;;;;;;;26.60;15.83;;;;;;;-1.52;73.71;98665.84;6111827;28;20555;-90
2021/12/22 14:23:59;;;;;;;24.30;14.77;;;;;;;-1.60;74.10;98665.94;6110829;28;20247;-88
2021/12/22 14:27:02;;;;;;;22.43;14.30;;;;;;;-1.70;74.54;98661.81;6109933;28;20223;-89
2021/12/22 14:30:26;;;;;;;26.47;14.73;;;;;;;-1.74;74.71;98660.13;6111020;28;20346;-88
2021/12/22 14:33:31;;;;;;;21.80;13.97;;;;;;;-1.81;74.79;98653.34;6125438;28;20754;-88
2021/12/22 14:36:49;;;;;;;22.13;14.43;;;;;;;-1.91;74.52;98646.63;6089040;28;20597;-88
2021/12/22 14:39:54;;;;;;;21.37;13.47;;;;;;;-2.07;75.23;98653.72;6125578;28;20269;-88
2021/12/22 14:43:06;;;;;;;24.80;14.63;;;;;;;-2.20;75.33;98656.53;6110084;28;20239;-89
2021/12/22 14:46:10;;;;;;;17.00;11.87;;;;;;;-2.34;75.92;98654.13;6110242;28;20278;-87
2021/12/22 14:49:23;;;;;;;17.13;11.23;;;;;;;-2.42;75.97;98664.56;6110104;28;20235;-87
2021/12/22 14:52:26;;;;;;;22.50;14.00;;;;;;;-2.49;76.09;98660.31;6111728;28;20781;-87
2021/12/22 14:55:47;;;;;;;18.90;13.07;;;;;;;-2.65;76.06;98657.09;6110402;28;20246;-87